createdAt,value
2022-09-23T00:04:21.882Z,1.80
2022-09-23T00:14:43.506Z,1.67
2022-09-23T00:19:45.198Z,1.70
2022-09-23T00:24:46.675Z,2.03
2022-09-23T00:29:48.527Z,1.63
2022-09-23T00:34:49.927Z,1.85
2022-09-23T00:39:51.338Z,1.70
2022-09-23T00:44:55.815Z,1.65
2022-09-23T00:50:06.481Z,1.55
2022-09-23T00:55:16.027Z,1.50
2022-09-23T01:05:19.632Z,1.52
2022-09-23T01:10:22.666Z,1.90
2022-09-23T01:15:33.679Z,2.10
2022-09-23T01:20:55.767Z,2.30
2022-09-23T01:26:05.963Z,2.15
2022-09-23T01:31:42.105Z,1.95
2022-09-23T01:36:56.291Z,2.55
2022-09-23T01:42:43.945Z,2.50
2022-09-23T01:47:55.890Z,2.30
2022-09-23T01:53:04.495Z,2.33
2022-09-23T01:58:12.031Z,2.40
2022-09-23T02:03:47.269Z,3.15
2022-09-23T02:09:01.805Z,3.42
2022-09-23T02:14:15.358Z,3.53
2022-09-23T02:19:40.173Z,3.22
2022-09-23T02:24:41.733Z,3.72
2022-09-23T02:29:53.868Z,2.85
2022-09-23T02:35:19.362Z,3.42
2022-09-23T02:40:28.527Z,3.80
2022-09-23T02:45:31.042Z,3.40
2022-09-23T02:50:33.550Z,3.67
2022-09-23T02:55:34.959Z,3.38
2022-09-23T03:00:47.127Z,3.88
2022-09-23T03:05:58.606Z,4.15
2022-09-23T03:11:11.766Z,4.25
2022-09-23T03:16:22.355Z,3.78
2022-09-23T03:21:41.133Z,3.65
2022-09-23T03:26:47.269Z,4.25
2022-09-23T03:31:48.936Z,3.97
2022-09-23T03:37:10.779Z,3.28
2022-09-23T03:42:30.640Z,3.83
2022-09-23T03:52:33.755Z,3.70
2022-09-23T03:57:36.094Z,3.40
2022-09-23T04:02:38.000Z,3.70
2022-09-23T04:07:39.616Z,3.92
2022-09-23T04:12:41.122Z,3.75
2022-09-23T04:17:42.535Z,3.90
2022-09-23T04:22:43.922Z,4.03
2022-09-23T04:27:45.301Z,4.00
2022-09-23T04:32:46.680Z,3.50
2022-09-23T04:37:48.647Z,3.58
2022-09-23T04:42:52.398Z,3.90
2022-09-23T04:47:55.005Z,4.10
2022-09-23T04:52:56.421Z,3.42
2022-09-23T04:57:57.802Z,4.55
2022-09-23T05:02:59.352Z,4.05
2022-09-23T05:08:01.016Z,3.75
2022-09-23T05:13:02.593Z,4.03
2022-09-23T05:18:04.040Z,3.65
2022-09-23T05:23:05.432Z,3.80
2022-09-23T05:28:06.826Z,2.88
2022-09-23T05:33:08.219Z,4.15
2022-09-23T05:38:09.691Z,4.30
2022-09-23T05:43:11.106Z,3.05
2022-09-23T05:48:12.915Z,3.72
2022-09-23T05:53:14.659Z,3.60
2022-09-23T05:58:16.166Z,4.05
2022-09-23T06:03:21.173Z,4.30
2022-09-23T06:08:23.558Z,4.20
2022-09-23T06:13:27.358Z,3.97
2022-09-23T06:18:29.026Z,4.22
2022-09-23T06:23:31.470Z,4.20
2022-09-23T06:28:35.470Z,5.22
2022-09-23T06:33:37.446Z,5.07
2022-09-23T06:38:48.402Z,4.70
2022-09-23T06:43:49.821Z,4.53
2022-09-23T06:48:51.200Z,4.60
2022-09-23T06:53:53.076Z,4.38
2022-09-23T06:58:54.792Z,4.32
2022-09-23T07:03:56.451Z,4.38
2022-09-23T07:08:57.823Z,4.05
2022-09-23T07:13:59.270Z,4.55
2022-09-23T07:19:00.768Z,4.55
2022-09-23T07:24:02.161Z,4.03
2022-09-23T07:29:04.885Z,4.13
2022-09-23T07:34:08.395Z,3.83
2022-09-23T07:39:12.544Z,4.22
2022-09-23T07:44:13.926Z,4.18
2022-09-23T07:49:15.764Z,3.35
2022-09-23T07:54:18.237Z,4.10
2022-09-23T07:59:19.706Z,3.40
2022-09-23T08:04:24.968Z,3.40
2022-09-23T08:09:35.059Z,3.40
2022-09-23T08:14:36.933Z,3.25
2022-09-23T08:19:38.496Z,2.78
2022-09-23T08:24:39.903Z,3.42
2022-09-23T08:29:41.433Z,4.13
2022-09-23T08:34:42.818Z,3.58
2022-09-23T08:39:44.605Z,3.08
2022-09-23T08:44:50.887Z,3.38
2022-09-23T08:50:23.526Z,3.35
2022-09-23T08:55:34.427Z,2.80
2022-09-23T09:00:41.505Z,3.80
2022-09-23T09:05:53.613Z,3.40
2022-09-23T09:10:58.077Z,3.25
2022-09-23T09:16:14.882Z,3.03
2022-09-23T09:21:16.475Z,3.60
2022-09-23T09:26:24.424Z,3.03
2022-09-23T09:31:42.647Z,3.15
2022-09-23T09:36:51.330Z,3.10
2022-09-23T09:41:53.623Z,2.73
2022-09-23T09:47:02.591Z,2.83
2022-09-23T09:52:22.386Z,2.50
2022-09-23T09:57:36.117Z,2.58
2022-09-23T10:02:39.622Z,2.55
2022-09-23T10:07:40.995Z,2.08
2022-09-23T10:12:47.048Z,1.88
2022-09-23T10:17:51.289Z,2.17
2022-09-23T10:22:53.068Z,1.88
2022-09-23T10:27:54.826Z,1.70
2022-09-23T10:32:56.833Z,1.80
2022-09-23T10:38:00.229Z,1.50
2022-09-23T10:43:49.228Z,1.63
2022-09-23T10:49:20.771Z,1.60
2022-09-23T10:54:41.036Z,1.95
2022-09-23T11:00:04.403Z,1.63
2022-09-23T11:05:33.735Z,1.70
2022-09-23T11:10:50.210Z,1.70
2022-09-23T11:16:01.939Z,1.88
2022-09-23T11:21:04.593Z,1.65
2022-09-23T11:26:36.858Z,2.13
2022-09-23T11:31:47.577Z,1.73
2022-09-23T11:36:56.783Z,1.70
2022-09-23T11:42:01.525Z,1.70
2022-09-23T11:47:08.860Z,1.30
2022-09-23T11:52:27.043Z,1.33
2022-09-23T11:57:49.238Z,1.40
2022-09-23T12:03:18.362Z,1.35
2022-09-23T12:08:33.171Z,1.23
2022-09-23T12:13:53.018Z,1.60
2022-09-23T12:19:11.056Z,1.50
2022-09-23T12:24:45.541Z,1.50
2022-09-23T12:29:49.656Z,1.15
2022-09-23T12:34:53.079Z,1.58
2022-09-23T12:40:01.687Z,1.38
2022-09-23T12:45:34.806Z,1.40
2022-09-23T12:50:48.237Z,1.30
2022-09-23T12:55:52.913Z,1.25
2022-09-23T13:01:15.772Z,1.20
2022-09-23T13:06:36.204Z,1.33
2022-09-23T13:11:40.287Z,1.08
2022-09-23T13:16:44.219Z,0.80
2022-09-23T13:21:45.745Z,1.05
2022-09-23T13:26:51.114Z,1.75
2022-09-23T13:31:56.399Z,0.80
2022-09-23T13:36:58.739Z,1.02
2022-09-23T13:42:04.120Z,0.93
2022-09-23T13:47:05.627Z,1.00
2022-09-23T13:52:24.802Z,0.80
2022-09-23T13:57:29.475Z,0.90
2022-09-23T14:02:31.155Z,0.85
2022-09-23T14:07:32.674Z,0.95
2022-09-23T14:12:39.418Z,1.00
2022-09-23T14:17:46.188Z,1.02
2022-09-23T14:22:47.915Z,1.10
2022-09-23T14:27:49.486Z,1.13
2022-09-23T14:32:51.194Z,0.77
2022-09-23T14:38:16.687Z,1.15
2022-09-23T14:43:23.060Z,0.85
2022-09-23T14:48:33.724Z,1.02
2022-09-23T14:53:35.207Z,1.10
2022-09-23T14:58:55.321Z,1.00
2022-09-23T15:04:10.429Z,1.08
2022-09-23T15:09:20.040Z,1.40
2022-09-23T15:14:37.315Z,1.30
2022-09-23T15:19:40.451Z,1.48
2022-09-23T15:24:48.062Z,1.40
2022-09-23T15:29:50.530Z,1.23
2022-09-23T15:34:53.299Z,1.27
2022-09-23T15:39:55.990Z,1.30
2022-09-23T15:44:58.239Z,1.45
2022-09-23T15:49:59.636Z,1.30
2022-09-23T15:55:01.046Z,1.40
2022-09-23T16:00:02.604Z,1.58
2022-09-23T16:05:26.467Z,1.50
2022-09-23T16:10:28.073Z,1.20
2022-09-23T16:15:31.829Z,1.20
2022-09-23T16:20:36.033Z,1.25
2022-09-23T16:25:37.579Z,1.50
2022-09-23T16:30:39.055Z,1.40
2022-09-23T16:35:40.449Z,1.05
2022-09-23T16:40:46.367Z,1.35
2022-09-23T16:45:48.659Z,2.17
2022-09-23T16:50:53.867Z,2.35
2022-09-23T16:55:57.822Z,2.65
2022-09-23T17:01:17.936Z,3.03
2022-09-23T17:06:19.398Z,2.70
2022-09-23T17:11:22.302Z,1.90
2022-09-23T17:16:27.766Z,2.58
2022-09-23T17:21:29.353Z,2.33
2022-09-23T17:26:31.107Z,2.13
2022-09-23T17:31:32.822Z,2.30
2022-09-23T17:36:34.267Z,1.85
2022-09-23T17:41:37.284Z,2.03
2022-09-23T17:46:38.661Z,1.85
2022-09-23T17:51:40.597Z,2.38
2022-09-23T17:56:44.939Z,1.75
2022-09-23T18:01:46.365Z,1.90
2022-09-23T18:06:47.891Z,1.80
2022-09-23T18:11:49.718Z,1.55
2022-09-23T18:16:53.378Z,2.10
2022-09-23T18:21:57.440Z,2.38
2022-09-23T18:27:00.092Z,2.25
2022-09-23T18:32:03.218Z,2.75
2022-09-23T18:37:15.039Z,2.10
2022-09-23T18:42:17.551Z,2.75
2022-09-23T18:47:39.249Z,2.95
2022-09-23T18:52:40.904Z,6.47
2022-09-23T18:57:42.901Z,6.43
2022-09-23T19:02:45.487Z,4.50
2022-09-23T19:07:46.915Z,3.47
2022-09-23T19:12:49.340Z,2.90
2022-09-23T19:17:50.966Z,3.35
2022-09-23T19:22:52.428Z,2.90
2022-09-23T19:27:54.298Z,2.40
2022-09-23T19:32:56.267Z,3.95
2022-09-23T19:37:57.689Z,2.80
2022-09-23T19:42:59.717Z,2.72
2022-09-23T19:48:02.096Z,3.10
2022-09-23T19:53:05.442Z,3.15
2022-09-23T19:58:07.167Z,3.22
2022-09-23T20:03:09.055Z,3.72
2022-09-23T20:08:10.583Z,3.53
2022-09-23T20:13:13.901Z,4.00
2022-09-23T20:18:15.456Z,4.68
2022-09-23T20:23:16.888Z,3.65
2022-09-23T20:28:22.275Z,5.18
2022-09-23T20:33:23.683Z,4.00
2022-09-23T20:38:25.578Z,4.10
2022-09-23T20:43:27.673Z,4.07
2022-09-23T20:48:30.541Z,4.28
2022-09-23T20:53:32.587Z,4.22
2022-09-23T20:58:36.637Z,4.43
2022-09-23T21:03:44.498Z,4.20
2022-09-23T21:08:46.470Z,4.53
2022-09-23T21:13:50.049Z,4.57
2022-09-23T21:18:51.850Z,4.35
2022-09-23T21:23:54.036Z,4.65
2022-09-23T21:28:58.898Z,4.65
2022-09-23T21:34:01.639Z,4.60
2022-09-23T21:39:05.393Z,4.68
2022-09-23T21:44:08.241Z,4.95
2022-09-23T21:49:09.967Z,4.20
2022-09-23T21:54:16.708Z,4.78
2022-09-23T21:59:18.403Z,4.72
2022-09-23T22:04:20.562Z,5.70
2022-09-23T22:09:22.289Z,4.88
2022-09-23T22:14:26.194Z,4.97
2022-09-23T22:19:40.242Z,4.43
2022-09-23T22:24:46.675Z,4.93
2022-09-23T22:30:06.986Z,5.25
2022-09-23T22:35:11.207Z,5.50
2022-09-23T22:40:15.168Z,6.05
2022-09-23T22:45:16.835Z,5.57
2022-09-23T22:50:18.629Z,5.82
2022-09-23T22:55:20.807Z,6.20
2022-09-23T23:00:22.735Z,6.15
2022-09-23T23:05:24.251Z,5.63
2022-09-23T23:10:27.160Z,6.20
2022-09-23T23:15:29.426Z,5.57
2022-09-23T23:20:31.315Z,5.88
2022-09-23T23:25:32.886Z,5.55
2022-09-23T23:30:34.928Z,5.85
2022-09-23T23:35:36.576Z,5.57
2022-09-23T23:40:38.190Z,4.78
2022-09-23T23:45:39.910Z,5.95
2022-09-23T23:50:41.449Z,5.90
2022-09-23T23:55:42.964Z,5.38
